createdAt,value
2018-11-03T00:02:24.271Z,99.90
2018-11-03T00:04:52.704Z,99.90
2018-11-03T00:07:21.212Z,99.90
2018-11-03T00:09:49.735Z,99.90
2018-11-03T00:12:18.196Z,99.90
2018-11-03T00:14:46.693Z,99.90
2018-11-03T00:17:15.144Z,99.90
2018-11-03T00:19:43.639Z,99.90
2018-11-03T00:22:12.147Z,99.90
2018-11-03T00:24:40.589Z,99.90
2018-11-03T00:27:09.128Z,99.90
2018-11-03T00:29:37.556Z,99.90
2018-11-03T00:32:06.009Z,99.90
2018-11-03T00:34:34.447Z,99.90
2018-11-03T00:37:02.891Z,99.90
2018-11-03T00:39:31.319Z,99.90
2018-11-03T00:41:59.765Z,99.90
2018-11-03T00:44:28.228Z,99.90
2018-11-03T00:46:56.704Z,99.90
2018-11-03T00:49:25.135Z,99.90
2018-11-03T00:51:53.658Z,99.90
2018-11-03T00:54:22.131Z,99.90
2018-11-03T00:56:50.559Z,99.90
2018-11-03T00:59:19.011Z,99.90
2018-11-03T01:01:47.444Z,99.90
2018-11-03T01:04:15.936Z,99.90
2018-11-03T01:06:44.367Z,99.90
2018-11-03T01:09:12.874Z,99.90
2018-11-03T01:11:41.304Z,99.90
2018-11-03T01:14:09.774Z,99.90
2018-11-03T01:16:38.207Z,99.90
2018-11-03T01:19:06.702Z,99.90
2018-11-03T01:21:35.136Z,99.90
2018-11-03T01:24:03.596Z,99.90
2018-11-03T01:26:32.028Z,99.90
2018-11-03T01:29:00.476Z,99.90
2018-11-03T01:31:28.909Z,99.90
2018-11-03T01:33:57.396Z,99.90
2018-11-03T01:36:25.820Z,99.90
2018-11-03T01:38:54.276Z,99.90
2018-11-03T01:41:22.712Z,99.90
2018-11-03T01:43:51.209Z,99.90
2018-11-03T01:46:19.682Z,99.90
2018-11-03T01:48:48.163Z,99.90
2018-11-03T01:51:16.675Z,99.90
2018-11-03T01:53:45.096Z,99.90
2018-11-03T01:56:13.549Z,99.90
2018-11-03T01:58:41.987Z,99.90
2018-11-03T02:01:10.496Z,99.90
2018-11-03T02:03:38.931Z,99.90
2018-11-03T02:06:07.424Z,99.90
2018-11-03T02:08:35.861Z,99.90
2018-11-03T02:11:04.435Z,99.90
2018-11-03T02:13:32.880Z,99.90
2018-11-03T02:16:01.344Z,99.90
2018-11-03T02:18:29.790Z,99.90
2018-11-03T02:20:58.263Z,99.90
2018-11-03T02:23:26.735Z,99.90
2018-11-03T02:25:55.179Z,99.90
2018-11-03T02:28:23.619Z,99.90
2018-11-03T02:30:52.083Z,99.90
2018-11-03T02:33:20.532Z,99.90
2018-11-03T02:35:48.984Z,99.90
2018-11-03T02:38:17.431Z,99.90
2018-11-03T02:40:45.891Z,99.90
2018-11-03T02:43:14.340Z,99.90
2018-11-03T02:45:42.808Z,99.90
2018-11-03T02:48:11.230Z,99.90
2018-11-03T02:50:39.698Z,99.90
2018-11-03T02:53:08.135Z,99.90
2018-11-03T02:55:36.592Z,99.90
2018-11-03T02:58:05.385Z,99.90
2018-11-03T03:00:33.841Z,99.90
2018-11-03T03:03:02.295Z,99.90
2018-11-03T03:05:30.759Z,99.90
2018-11-03T03:07:59.232Z,99.90
2018-11-03T03:10:27.672Z,99.90
2018-11-03T03:12:56.140Z,99.90
2018-11-03T03:15:24.564Z,99.90
2018-11-03T03:17:53.008Z,99.90
2018-11-03T03:20:21.452Z,99.90
2018-11-03T03:22:49.907Z,99.90
2018-11-03T03:25:18.369Z,99.90
2018-11-03T03:27:46.831Z,99.90
2018-11-03T03:30:15.294Z,99.90
2018-11-03T03:32:43.759Z,99.90
2018-11-03T03:35:12.270Z,99.90
2018-11-03T03:37:40.727Z,99.90
2018-11-03T03:40:09.744Z,99.90
2018-11-03T03:42:38.405Z,99.90
2018-11-03T03:45:07.833Z,99.90
2018-11-03T03:47:36.324Z,99.90
2018-11-03T03:50:05.379Z,99.90
2018-11-03T03:52:33.831Z,99.90
2018-11-03T03:55:02.333Z,99.90
2018-11-03T03:57:31.459Z,99.90
2018-11-03T03:59:59.937Z,99.90
2018-11-03T04:02:28.417Z,99.90
2018-11-03T04:04:56.854Z,99.90
2018-11-03T04:07:25.297Z,99.90
2018-11-03T04:09:53.737Z,99.90
2018-11-03T04:12:22.189Z,99.90
2018-11-03T04:14:50.607Z,99.90
2018-11-03T04:17:19.016Z,99.90
2018-11-03T04:19:47.432Z,99.90
2018-11-03T04:22:15.832Z,99.90
2018-11-03T04:24:44.285Z,99.90
2018-11-03T04:27:12.727Z,99.90
2018-11-03T04:29:41.157Z,99.90
2018-11-03T04:32:09.588Z,99.90
2018-11-03T04:34:38.001Z,99.90
2018-11-03T04:37:06.400Z,99.90
2018-11-03T04:39:34.823Z,99.90
2018-11-03T04:42:03.236Z,99.90
2018-11-03T04:44:31.672Z,99.90
2018-11-03T04:47:00.073Z,99.90
2018-11-03T04:49:28.488Z,99.90
2018-11-03T04:51:56.933Z,99.90
2018-11-03T04:54:25.355Z,99.90
2018-11-03T04:56:53.756Z,99.90
2018-11-03T04:59:22.168Z,99.90
2018-11-03T05:01:50.611Z,99.90
2018-11-03T05:04:19.077Z,99.90
2018-11-03T05:06:47.496Z,99.90
2018-11-03T05:09:15.904Z,99.90
2018-11-03T05:11:44.325Z,99.90
2018-11-03T05:14:12.800Z,99.90
2018-11-03T05:16:41.225Z,99.90
2018-11-03T05:19:09.654Z,99.90
2018-11-03T05:21:38.072Z,99.90
2018-11-03T05:24:06.539Z,99.90
2018-11-03T05:26:34.913Z,99.90
2018-11-03T05:29:03.347Z,99.90
2018-11-03T05:31:31.763Z,99.90
2018-11-03T05:34:00.152Z,99.90
2018-11-03T05:36:28.581Z,99.90
2018-11-03T05:38:56.989Z,99.90
2018-11-03T05:41:25.419Z,99.90
2018-11-03T05:43:53.860Z,99.90
2018-11-03T05:46:22.348Z,99.90
2018-11-03T05:48:50.771Z,99.90
2018-11-03T05:51:19.207Z,99.90
2018-11-03T05:53:48.516Z,99.90
2018-11-03T05:56:16.960Z,99.90
2018-11-03T05:58:45.507Z,99.90
2018-11-03T06:01:13.889Z,99.90
2018-11-03T06:03:42.477Z,99.90
2018-11-03T06:06:10.940Z,99.90
2018-11-03T06:08:39.365Z,99.90
2018-11-03T06:11:07.791Z,99.90
2018-11-03T06:13:36.233Z,99.90
2018-11-03T06:16:04.704Z,99.90
2018-11-03T06:18:33.145Z,99.90
2018-11-03T06:21:01.545Z,99.90
2018-11-03T06:23:30.023Z,99.90
2018-11-03T06:25:58.484Z,99.90
2018-11-03T06:28:26.941Z,99.90
2018-11-03T06:30:55.367Z,99.90
2018-11-03T06:33:23.813Z,99.90
2018-11-03T06:35:52.228Z,99.90
2018-11-03T06:38:20.872Z,99.90
2018-11-03T06:40:49.292Z,99.90
2018-11-03T06:43:17.737Z,99.90
2018-11-03T06:45:46.155Z,99.90
2018-11-03T06:48:14.578Z,99.90
2018-11-03T06:50:42.988Z,99.90
2018-11-03T06:53:11.425Z,99.90
2018-11-03T06:58:12.548Z,99.90
2018-11-03T07:00:40.969Z,99.90
2018-11-03T07:03:09.413Z,99.90
2018-11-03T07:05:37.828Z,99.90
2018-11-03T07:08:06.373Z,99.90
2018-11-03T07:10:34.792Z,99.90
2018-11-03T07:13:03.325Z,99.90
2018-11-03T07:15:31.762Z,99.90
2018-11-03T07:18:00.167Z,99.90
2018-11-03T07:20:29.321Z,99.90
2018-11-03T07:22:57.820Z,99.90
2018-11-03T07:25:27.058Z,99.90
2018-11-03T07:27:55.508Z,99.90
2018-11-03T07:30:24.657Z,99.90
2018-11-03T07:32:53.092Z,99.90
2018-11-03T07:35:21.523Z,99.90
2018-11-03T07:37:49.927Z,99.90
2018-11-03T07:40:18.354Z,99.90
2018-11-03T07:42:46.972Z,99.90
2018-11-03T07:45:15.229Z,99.90
2018-11-03T07:47:44.156Z,99.90
2018-11-03T07:50:13.305Z,99.90
2018-11-03T07:52:42.284Z,99.90
2018-11-03T07:55:12.233Z,99.90
2018-11-03T07:57:40.884Z,99.90
2018-11-03T08:00:11.645Z,99.90
2018-11-03T08:02:40.110Z,99.90
2018-11-03T08:05:09.612Z,99.90
2018-11-03T08:07:38.045Z,99.90
2018-11-03T08:10:07.385Z,99.90
2018-11-03T08:12:35.792Z,99.90
2018-11-03T08:15:04.293Z,99.90
2018-11-03T08:17:32.712Z,99.90
2018-11-03T08:20:01.125Z,99.90
2018-11-03T08:22:29.577Z,99.90
2018-11-03T08:24:58.034Z,99.90
2018-11-03T08:27:26.464Z,99.90
2018-11-03T08:29:54.889Z,99.90
2018-11-03T08:32:23.316Z,99.90
2018-11-03T08:34:51.728Z,99.90
2018-11-03T08:37:20.200Z,99.90
2018-11-03T08:39:48.757Z,99.90
2018-11-03T08:42:17.104Z,99.90
2018-11-03T08:44:45.552Z,99.90
2018-11-03T08:47:14.006Z,99.90
2018-11-03T08:49:42.440Z,99.90
2018-11-03T08:52:10.900Z,99.90
2018-11-03T08:54:39.328Z,99.90
2018-11-03T08:57:07.776Z,99.90
2018-11-03T08:59:36.279Z,99.90
2018-11-03T09:02:04.973Z,99.90
2018-11-03T09:04:33.391Z,99.90
2018-11-03T09:07:02.040Z,99.90
2018-11-03T09:09:30.340Z,99.90
2018-11-03T09:11:58.803Z,99.90
2018-11-03T09:14:27.277Z,99.90
2018-11-03T09:16:55.705Z,99.90
2018-11-03T09:19:24.140Z,97.70
2018-11-03T09:21:52.679Z,99.20
2018-11-03T09:24:21.030Z,98.90
2018-11-03T09:26:49.486Z,98.40
2018-11-03T09:29:17.952Z,98.50
2018-11-03T09:31:46.462Z,98.00
2018-11-03T09:34:14.853Z,97.10
2018-11-03T09:36:43.285Z,97.40
2018-11-03T09:39:11.960Z,97.30
2018-11-03T09:41:40.508Z,97.40
2018-11-03T09:44:09.020Z,97.40
2018-11-03T09:46:37.452Z,96.60
2018-11-03T09:49:06.177Z,97.20
2018-11-03T09:51:34.634Z,98.00
2018-11-03T09:54:03.096Z,97.20
2018-11-03T09:56:31.537Z,96.60
2018-11-03T09:59:00.013Z,96.60
2018-11-03T10:01:28.448Z,96.00
2018-11-03T10:03:57.004Z,97.20
2018-11-03T10:06:25.527Z,97.10
2018-11-03T10:08:53.908Z,97.10
2018-11-03T10:11:22.340Z,97.50
2018-11-03T10:13:50.792Z,96.90
2018-11-03T10:16:19.250Z,96.80
2018-11-03T10:18:47.712Z,95.70
2018-11-03T10:21:16.143Z,95.90
2018-11-03T10:23:44.592Z,94.20
2018-11-03T10:26:13.053Z,94.70
2018-11-03T10:28:41.495Z,93.80
2018-11-03T10:31:09.924Z,93.40
2018-11-03T10:33:38.428Z,93.80
2018-11-03T10:36:06.892Z,93.90
2018-11-03T10:38:35.349Z,94.10
2018-11-03T10:41:03.804Z,94.50
2018-11-03T10:43:32.341Z,96.60
2018-11-03T10:46:00.745Z,98.30
2018-11-03T10:48:29.202Z,98.20
2018-11-03T10:50:57.724Z,99.90
2018-11-03T10:53:26.166Z,99.90
2018-11-03T10:55:54.598Z,99.90
2018-11-03T10:58:23.033Z,99.50
2018-11-03T11:00:56.771Z,98.50
2018-11-03T11:03:30.471Z,97.40
2018-11-03T11:06:04.403Z,97.10
2018-11-03T11:08:38.089Z,96.40
2018-11-03T11:11:11.863Z,95.90
2018-11-03T11:13:41.172Z,95.40
2018-11-03T11:16:09.678Z,96.40
2018-11-03T11:18:38.049Z,95.70
2018-11-03T11:21:06.495Z,96.00
2018-11-03T11:23:34.949Z,95.90
2018-11-03T11:26:03.384Z,96.50
2018-11-03T11:28:31.832Z,97.70
2018-11-03T11:31:00.262Z,97.40
2018-11-03T11:33:28.676Z,97.00
2018-11-03T11:35:57.125Z,97.20
2018-11-03T11:38:25.556Z,96.10
2018-11-03T11:40:54.004Z,95.90
2018-11-03T11:43:22.465Z,95.50
2018-11-03T11:45:50.930Z,95.50
2018-11-03T11:48:19.363Z,96.30
2018-11-03T11:50:47.843Z,97.20
2018-11-03T11:53:16.304Z,98.40
2018-11-03T11:55:44.797Z,99.60
2018-11-03T11:58:13.247Z,99.90
2018-11-03T12:00:41.783Z,99.90
2018-11-03T12:03:10.163Z,99.90
2018-11-03T12:05:38.620Z,99.90
2018-11-03T12:08:07.090Z,99.90
2018-11-03T12:10:35.547Z,99.90
2018-11-03T12:13:03.993Z,99.90
2018-11-03T12:15:32.419Z,99.90
2018-11-03T12:18:00.892Z,99.90
2018-11-03T12:20:29.344Z,99.90
2018-11-03T12:22:57.796Z,99.90
2018-11-03T12:25:26.277Z,99.90
2018-11-03T12:27:54.711Z,99.90
2018-11-03T12:30:23.143Z,99.90
2018-11-03T12:32:51.604Z,99.90
2018-11-03T12:35:20.044Z,99.90
2018-11-03T12:37:48.499Z,99.90
2018-11-03T12:40:17.079Z,99.90
2018-11-03T12:42:45.540Z,99.90
2018-11-03T12:45:14.292Z,99.90
2018-11-03T12:47:42.996Z,99.90
2018-11-03T12:50:14.212Z,99.90
2018-11-03T12:52:42.689Z,99.90
2018-11-03T12:55:11.303Z,99.90
2018-11-03T12:57:40.608Z,99.90
2018-11-03T13:00:10.500Z,99.90
2018-11-03T13:02:39.731Z,99.90
2018-11-03T13:05:08.509Z,99.90
2018-11-03T13:07:37.532Z,99.90
2018-11-03T13:10:07.369Z,99.90
2018-11-03T13:12:35.720Z,99.90
2018-11-03T13:15:04.202Z,99.90
2018-11-03T13:17:32.620Z,99.90
2018-11-03T13:20:01.113Z,99.90
2018-11-03T13:22:29.564Z,99.90
2018-11-03T13:24:58.003Z,99.90
2018-11-03T13:27:26.438Z,99.90
2018-11-03T13:29:54.901Z,99.90
2018-11-03T13:32:23.328Z,99.90
2018-11-03T13:34:51.801Z,99.90
2018-11-03T13:37:20.225Z,99.90
2018-11-03T13:39:48.732Z,99.90
2018-11-03T13:42:17.158Z,99.90
2018-11-03T13:44:45.607Z,99.90
2018-11-03T13:47:14.073Z,99.90
2018-11-03T13:49:42.487Z,99.90
2018-11-03T13:52:10.900Z,99.90
2018-11-03T13:54:39.344Z,99.90
2018-11-03T13:57:07.879Z,99.90
2018-11-03T13:59:36.203Z,99.90
2018-11-03T14:02:05.060Z,99.90
2018-11-03T14:04:33.484Z,99.90
2018-11-03T14:07:01.960Z,99.90
2018-11-03T14:09:30.368Z,99.90
2018-11-03T14:11:58.796Z,99.90
2018-11-03T14:14:27.232Z,99.90
2018-11-03T14:16:55.661Z,99.90
2018-11-03T14:19:24.077Z,99.90
2018-11-03T14:21:52.513Z,99.90
2018-11-03T14:24:20.924Z,99.90
2018-11-03T14:26:49.390Z,99.90
2018-11-03T14:29:17.848Z,99.90
2018-11-03T14:31:46.268Z,99.90
2018-11-03T14:34:14.668Z,99.90
2018-11-03T14:36:43.100Z,99.90
2018-11-03T14:39:11.921Z,99.90
2018-11-03T14:41:40.350Z,99.90
2018-11-03T14:44:08.775Z,99.90
2018-11-03T14:46:37.196Z,99.90
2018-11-03T14:49:05.899Z,99.90
2018-11-03T14:51:34.338Z,99.90
2018-11-03T14:54:02.763Z,99.90
2018-11-03T14:56:31.197Z,99.90
2018-11-03T14:58:59.621Z,99.90
2018-11-03T15:01:28.052Z,99.90
2018-11-03T15:03:56.448Z,99.90
2018-11-03T15:06:25.088Z,99.90
2018-11-03T15:08:53.494Z,99.90
2018-11-03T15:11:21.980Z,99.90
2018-11-03T15:13:50.465Z,99.90
2018-11-03T15:16:18.835Z,99.90
2018-11-03T15:18:47.240Z,99.90
2018-11-03T15:21:15.676Z,99.90
2018-11-03T15:23:44.084Z,99.90
2018-11-03T15:26:12.548Z,99.90
2018-11-03T15:28:40.960Z,99.90
2018-11-03T15:31:09.391Z,99.90
2018-11-03T15:36:28.449Z,99.90
2018-11-03T15:38:57.093Z,99.90
2018-11-03T15:41:25.641Z,99.90
2018-11-03T15:43:54.074Z,99.90
2018-11-03T15:46:22.540Z,99.90
2018-11-03T15:48:50.980Z,99.90
2018-11-03T15:51:19.424Z,99.90
2018-11-03T15:53:47.880Z,99.90
2018-11-03T15:56:16.324Z,99.90
2018-11-03T15:58:44.806Z,99.90
2018-11-03T16:01:13.248Z,99.90
2018-11-03T16:03:41.712Z,99.90
2018-11-03T16:06:10.193Z,99.90
2018-11-03T16:08:38.666Z,99.90
2018-11-03T16:11:07.113Z,99.90
2018-11-03T16:13:35.598Z,99.90
2018-11-03T16:16:04.060Z,99.90
2018-11-03T16:18:32.514Z,99.90
2018-11-03T16:21:00.965Z,99.90
2018-11-03T16:23:29.608Z,99.90
2018-11-03T16:25:58.083Z,99.90
2018-11-03T16:28:26.622Z,99.90
2018-11-03T16:30:54.997Z,99.90
2018-11-03T16:33:23.451Z,99.90
2018-11-03T16:35:51.883Z,99.90
2018-11-03T16:38:20.420Z,99.90
2018-11-03T16:40:48.920Z,99.90
2018-11-03T16:43:17.376Z,99.90
2018-11-03T16:45:45.958Z,99.90
2018-11-03T16:48:14.336Z,99.90
2018-11-03T16:50:42.792Z,99.90
2018-11-03T16:53:11.257Z,99.90
2018-11-03T16:55:39.775Z,99.90
2018-11-03T16:58:08.216Z,99.90
2018-11-03T17:00:36.672Z,99.90
2018-11-03T17:03:05.236Z,99.90
2018-11-03T17:05:33.696Z,99.90
2018-11-03T17:08:02.165Z,99.90
2018-11-03T17:10:30.641Z,99.90
2018-11-03T17:12:59.150Z,99.90
2018-11-03T17:15:27.593Z,99.90
2018-11-03T17:17:56.047Z,99.90
2018-11-03T17:20:24.528Z,99.90
2018-11-03T17:22:52.968Z,99.90
2018-11-03T17:25:21.565Z,99.90
2018-11-03T17:27:49.909Z,99.90
2018-11-03T17:30:18.383Z,99.90
2018-11-03T17:32:46.832Z,99.90
2018-11-03T17:35:15.357Z,99.90
2018-11-03T17:37:44.184Z,99.90
2018-11-03T17:40:12.958Z,99.90
2018-11-03T17:42:41.427Z,99.90
2018-11-03T17:45:10.697Z,99.90
2018-11-03T17:47:39.157Z,99.90
2018-11-03T17:50:08.902Z,99.90
2018-11-03T17:52:37.400Z,99.90
2018-11-03T17:55:06.628Z,99.90
2018-11-03T17:57:35.481Z,99.90
2018-11-03T18:00:04.513Z,99.90
2018-11-03T18:02:32.976Z,99.90
2018-11-03T18:05:01.420Z,99.90
2018-11-03T18:07:29.896Z,99.90
2018-11-03T18:09:58.336Z,99.90
2018-11-03T18:12:26.788Z,99.90
2018-11-03T18:14:55.241Z,99.90
2018-11-03T18:17:23.696Z,99.90
2018-11-03T18:19:52.268Z,99.90
2018-11-03T18:22:20.628Z,99.90
2018-11-03T18:24:49.063Z,99.90
2018-11-03T18:27:17.575Z,99.90
2018-11-03T18:29:46.016Z,99.90
2018-11-03T18:32:14.524Z,99.90
2018-11-03T18:34:43.029Z,99.90
2018-11-03T18:37:11.523Z,99.90
2018-11-03T18:39:39.983Z,99.90
2018-11-03T18:42:08.459Z,99.90
2018-11-03T18:44:36.926Z,99.90
2018-11-03T18:47:05.406Z,99.90
2018-11-03T18:49:33.833Z,99.90
2018-11-03T18:52:02.289Z,99.90
2018-11-03T18:54:30.744Z,99.90
2018-11-03T18:56:59.240Z,99.90
2018-11-03T18:59:27.671Z,99.90
2018-11-03T19:01:56.304Z,99.90
2018-11-03T19:04:24.728Z,99.90
2018-11-03T19:06:53.252Z,99.90
2018-11-03T19:09:21.712Z,99.90
2018-11-03T19:11:50.192Z,99.90
2018-11-03T19:14:18.625Z,99.90
2018-11-03T19:16:47.101Z,99.90
2018-11-03T19:19:15.562Z,99.90
2018-11-03T19:21:44.008Z,99.90
2018-11-03T19:24:12.553Z,99.90
2018-11-03T19:26:40.924Z,99.90
2018-11-03T19:29:09.377Z,99.90
2018-11-03T19:31:37.825Z,99.90
2018-11-03T19:34:06.281Z,99.90
2018-11-03T19:36:34.716Z,99.90
2018-11-03T19:39:03.232Z,99.90
2018-11-03T19:41:31.751Z,99.90
2018-11-03T19:44:00.203Z,99.90
2018-11-03T19:46:28.656Z,99.90
2018-11-03T19:48:57.104Z,99.90
2018-11-03T19:51:25.549Z,99.90
2018-11-03T19:53:54.012Z,99.90
2018-11-03T19:56:22.448Z,99.90
2018-11-03T19:58:50.957Z,99.90
2018-11-03T20:01:19.439Z,99.90
2018-11-03T20:03:47.896Z,99.90
2018-11-03T20:06:16.320Z,99.90
2018-11-03T20:08:44.783Z,99.90
2018-11-03T20:11:13.229Z,99.90
2018-11-03T20:13:41.678Z,99.90
2018-11-03T20:16:11.132Z,99.90
2018-11-03T20:18:39.596Z,99.90
2018-11-03T20:21:08.024Z,99.90
2018-11-03T20:23:36.478Z,99.90
2018-11-03T20:26:05.309Z,99.90
2018-11-03T20:28:33.716Z,99.90
2018-11-03T20:31:02.145Z,99.90
2018-11-03T20:33:30.596Z,99.90
2018-11-03T20:35:59.020Z,99.90
2018-11-03T20:38:27.470Z,99.90
2018-11-03T20:40:55.919Z,99.90
2018-11-03T20:43:24.365Z,99.90
2018-11-03T20:45:52.814Z,99.90
2018-11-03T20:48:21.251Z,99.90
2018-11-03T20:50:53.909Z,99.90
2018-11-03T20:53:22.332Z,99.90
2018-11-03T20:55:50.779Z,99.90
2018-11-03T20:58:19.209Z,99.90
2018-11-03T21:00:47.656Z,99.90
2018-11-03T21:03:16.084Z,99.90
2018-11-03T21:05:44.536Z,99.90
2018-11-03T21:08:13.053Z,99.90
2018-11-03T21:10:41.441Z,99.90
2018-11-03T21:13:09.872Z,99.90
2018-11-03T21:15:38.307Z,99.90
2018-11-03T21:18:06.736Z,99.90
2018-11-03T21:20:35.175Z,99.90
2018-11-03T21:23:03.601Z,99.90
2018-11-03T21:25:32.058Z,99.90
2018-11-03T21:28:00.492Z,99.90
2018-11-03T21:30:28.949Z,99.90
2018-11-03T21:32:57.512Z,99.90
2018-11-03T21:35:25.879Z,99.90
2018-11-03T21:37:54.295Z,99.90
2018-11-03T21:40:22.731Z,99.90
2018-11-03T21:42:51.172Z,99.90
2018-11-03T21:45:19.640Z,99.90
2018-11-03T21:47:48.120Z,99.90
2018-11-03T21:50:16.577Z,99.90
2018-11-03T21:52:45.009Z,99.90
2018-11-03T21:55:13.453Z,99.90
2018-11-03T21:57:41.868Z,99.90
2018-11-03T22:00:11.373Z,99.90
2018-11-03T22:02:40.136Z,99.90
2018-11-03T22:05:10.360Z,99.90
2018-11-03T22:07:38.865Z,99.90
2018-11-03T22:10:07.633Z,99.90
2018-11-03T22:12:36.085Z,99.90
2018-11-03T22:15:04.840Z,99.90
2018-11-03T22:17:33.821Z,99.90
2018-11-03T22:20:02.255Z,99.90
2018-11-03T22:22:30.712Z,99.90
2018-11-03T22:24:59.161Z,99.90
2018-11-03T22:27:27.613Z,99.90
2018-11-03T22:29:56.032Z,99.90
2018-11-03T22:32:24.489Z,99.90
2018-11-03T22:34:52.920Z,99.90
2018-11-03T22:37:21.369Z,99.90
2018-11-03T22:39:49.792Z,99.90
2018-11-03T22:42:18.354Z,99.90
2018-11-03T22:44:47.272Z,99.90
2018-11-03T22:47:15.729Z,99.90
2018-11-03T22:49:44.176Z,99.90
2018-11-03T22:52:12.647Z,99.90
2018-11-03T22:54:41.093Z,99.90
2018-11-03T22:57:09.591Z,99.90
2018-11-03T22:59:38.033Z,99.90
2018-11-03T23:02:06.568Z,99.90
2018-11-03T23:04:34.992Z,99.90
2018-11-03T23:07:03.617Z,99.90
2018-11-03T23:09:32.069Z,99.90
2018-11-03T23:12:00.537Z,99.90
2018-11-03T23:14:28.977Z,99.90
2018-11-03T23:16:57.435Z,99.90
2018-11-03T23:19:25.986Z,99.90
2018-11-03T23:21:54.399Z,99.90
2018-11-03T23:24:22.820Z,99.90
2018-11-03T23:26:51.272Z,99.90
2018-11-03T23:29:19.813Z,99.90
2018-11-03T23:31:48.225Z,99.90
2018-11-03T23:34:16.703Z,99.90
2018-11-03T23:36:45.164Z,99.90
2018-11-03T23:39:13.639Z,99.90
2018-11-03T23:41:42.105Z,99.90
2018-11-03T23:44:10.893Z,99.90
2018-11-03T23:46:39.454Z,99.90
2018-11-03T23:49:07.948Z,99.90
2018-11-03T23:51:36.405Z,99.90
2018-11-03T23:54:05.195Z,99.90
2018-11-03T23:56:33.648Z,99.90
2018-11-03T23:59:02.135Z,99.90
